sensor_id;sensor_type;location;lat;lon;timestamp;pressure;altitude;pressure_sealevel;temperature;humidity
23619;BME280;18207;32.078;34.818;2023-02-28T00:00:15;101489.56;;;24.83;39.21
23619;BME280;18207;32.078;34.818;2023-02-28T00:02:48;101482.28;;;24.82;39.23
23619;BME280;18207;32.078;34.818;2023-02-28T00:05:21;101475.84;;;24.82;39.17
23619;BME280;18207;32.078;34.818;2023-02-28T00:07:53;101485.47;;;24.81;38.83
23619;BME280;18207;32.078;34.818;2023-02-28T00:10:27;101485.81;;;24.79;39.21
23619;BME280;18207;32.078;34.818;2023-02-28T00:13:02;101480.50;;;24.78;39.02
23619;BME280;18207;32.078;34.818;2023-02-28T00:15:34;101468.47;;;24.77;39.28
23619;BME280;18207;32.078;34.818;2023-02-28T00:18:07;101473.59;;;24.75;38.95
23619;BME280;18207;32.078;34.818;2023-02-28T00:20:38;101471.16;;;24.74;38.88
23619;BME280;18207;32.078;34.818;2023-02-28T00:23:09;101469.50;;;24.73;38.91
23619;BME280;18207;32.078;34.818;2023-02-28T00:25:41;101469.84;;;24.71;38.57
23619;BME280;18207;32.078;34.818;2023-02-28T00:28:12;101464.56;;;24.70;38.71
23619;BME280;18207;32.078;34.818;2023-02-28T00:30:42;101468.53;;;24.69;38.78
23619;BME280;18207;32.078;34.818;2023-02-28T00:33:15;101466.09;;;24.67;38.98
23619;BME280;18207;32.078;34.818;2023-02-28T00:35:46;101467.25;;;24.66;38.78
23619;BME280;18207;32.078;34.818;2023-02-28T00:38:17;101459.97;;;24.65;38.69
23619;BME280;18207;32.078;34.818;2023-02-28T00:40:47;101450.25;;;24.63;38.69
23619;BME280;18207;32.078;34.818;2023-02-28T00:43:19;101455.03;;;24.62;38.66
23619;BME280;18207;32.078;34.818;2023-02-28T00:45:49;101455.41;;;24.61;38.20
23619;BME280;18207;32.078;34.818;2023-02-28T00:48:21;101461.38;;;24.59;38.70
23619;BME280;18207;32.078;34.818;2023-02-28T00:51:01;101458.88;;;24.58;38.67
23619;BME280;18207;32.078;34.818;2023-02-28T00:53:33;101459.25;;;24.56;38.48
23619;BME280;18207;32.078;34.818;2023-02-28T00:56:05;101451.16;;;24.55;38.79
23619;BME280;18207;32.078;34.818;2023-02-28T00:58:37;101458.75;;;24.54;38.76
23619;BME280;18207;32.078;34.818;2023-02-28T01:01:07;101451.50;;;24.53;38.32
23619;BME280;18207;32.078;34.818;2023-02-28T01:03:39;101451.84;;;24.52;38.45
23619;BME280;18207;32.078;34.818;2023-02-28T01:06:13;101448.22;;;24.51;38.65
23619;BME280;18207;32.078;34.818;2023-02-28T01:08:43;101445.75;;;24.50;38.44
23619;BME280;18207;32.078;34.818;2023-02-28T01:11:17;101444.09;;;24.49;38.53
23619;BME280;18207;32.078;34.818;2023-02-28T01:13:47;101445.25;;;24.48;38.28
23619;BME280;18207;32.078;34.818;2023-02-28T01:16:19;101445.25;;;24.48;38.52
23619;BME280;18207;32.078;34.818;2023-02-28T01:18:53;101452.09;;;24.47;38.27
23619;BME280;18207;32.078;34.818;2023-02-28T01:21:25;101455.22;;;24.45;38.48
23619;BME280;18207;32.078;34.818;2023-02-28T01:23:58;101447.13;;;24.44;38.49
23619;BME280;18207;32.078;34.818;2023-02-28T01:26:29;101453.56;;;24.44;38.41
23619;BME280;18207;32.078;34.818;2023-02-28T01:29:00;101459.50;;;24.43;38.44
23619;BME280;18207;32.078;34.818;2023-02-28T01:31:32;101452.25;;;24.42;38.32
23619;BME280;18207;32.078;34.818;2023-02-28T01:34:04;101453.41;;;24.41;38.31
23619;BME280;18207;32.078;34.818;2023-02-28T01:36:35;101449.44;;;24.42;38.21
23619;BME280;18207;32.078;34.818;2023-02-28T01:39:06;101450.97;;;24.39;38.40
23619;BME280;18207;32.078;34.818;2023-02-28T01:41:37;101448.94;;;24.40;38.33
23619;BME280;18207;32.078;34.818;2023-02-28T01:47:17;101455.28;;;24.37;38.31
23619;BME280;18207;32.078;34.818;2023-02-28T01:49:50;101453.63;;;24.36;38.47
23619;BME280;18207;32.078;34.818;2023-02-28T01:52:27;101456.44;;;24.36;38.12
23619;BME280;18207;32.078;34.818;2023-02-28T01:55:01;101460.41;;;24.35;38.48
23619;BME280;18207;32.078;34.818;2023-02-28T01:57:38;101449.19;;;24.35;38.25
23619;BME280;18207;32.078;34.818;2023-02-28T02:00:16;101458.78;;;24.34;38.28
23619;BME280;18207;32.078;34.818;2023-02-28T02:03:05;101450.69;;;24.32;38.43
23619;BME280;18207;32.078;34.818;2023-02-28T02:05:41;101456.31;;;24.32;37.88
23619;BME280;18207;32.078;34.818;2023-02-28T02:08:20;101463.91;;;24.32;38.06
23619;BME280;18207;32.078;34.818;2023-02-28T02:10:55;101451.84;;;24.31;38.33
23619;BME280;18207;32.078;34.818;2023-02-28T02:13:42;101458.28;;;24.32;38.14
23619;BME280;18207;32.078;34.818;2023-02-28T02:16:41;101461.94;;;24.32;38.28
23619;BME280;18207;32.078;34.818;2023-02-28T02:26:09;101462.59;;;24.29;38.14
23619;BME280;18207;32.078;34.818;2023-02-28T02:29:23;101463.41;;;24.30;37.89
23619;BME280;18207;32.078;34.818;2023-02-28T02:35:43;101469.38;;;24.28;38.03
23619;BME280;18207;32.078;34.818;2023-02-28T02:38:31;101462.59;;;24.29;37.94
23619;BME280;18207;32.078;34.818;2023-02-28T02:41:14;101468.22;;;24.29;37.65
23619;BME280;18207;32.078;34.818;2023-02-28T02:43:52;101467.38;;;24.29;38.21
23619;BME280;18207;32.078;34.818;2023-02-28T02:46:30;101471.53;;;24.31;37.93
23619;BME280;18207;32.078;34.818;2023-02-28T02:49:08;101475.97;;;24.32;37.88
23619;BME280;18207;32.078;34.818;2023-02-28T02:51:56;101470.69;;;24.31;38.08
23619;BME280;18207;32.078;34.818;2023-02-28T02:54:33;101477.94;;;24.32;37.98
23619;BME280;18207;32.078;34.818;2023-02-28T02:57:09;101480.75;;;24.32;37.68
23619;BME280;18207;32.078;34.818;2023-02-28T02:59:42;101479.59;;;24.33;37.66
23619;BME280;18207;32.078;34.818;2023-02-28T03:02:15;101474.78;;;24.33;37.82
23619;BME280;18207;32.078;34.818;2023-02-28T03:04:52;101484.06;;;24.34;37.53
23619;BME280;18207;32.078;34.818;2023-02-28T03:07:26;101484.88;;;24.34;37.76
23619;BME280;18207;32.078;34.818;2023-02-28T03:09:58;101479.25;;;24.34;37.95
23619;BME280;18207;32.078;34.818;2023-02-28T03:12:39;101480.91;;;24.35;37.39
23619;BME280;18207;32.078;34.818;2023-02-28T03:15:19;101482.53;;;24.36;37.36
23619;BME280;18207;32.078;34.818;2023-02-28T03:18:05;101478.09;;;24.35;37.33
23619;BME280;18207;32.078;34.818;2023-02-28T03:20:50;101484.53;;;24.36;37.54
23619;BME280;18207;32.078;34.818;2023-02-28T03:23:38;101485.34;;;24.36;37.54
23619;BME280;18207;32.078;34.818;2023-02-28T03:26:17;101476.91;;;24.36;37.45
23619;BME280;18207;32.078;34.818;2023-02-28T03:29:02;101482.19;;;24.38;37.19
23619;BME280;18207;32.078;34.818;2023-02-28T03:31:41;101482.19;;;24.38;37.40
23619;BME280;18207;32.078;34.818;2023-02-28T03:34:21;101480.22;;;24.38;37.19
23619;BME280;18207;32.078;34.818;2023-02-28T03:36:59;101479.06;;;24.39;37.31
23619;BME280;18207;32.078;34.818;2023-02-28T03:39:38;101483.50;;;24.40;37.02
23619;BME280;18207;32.078;34.818;2023-02-28T03:42:15;101477.88;;;24.40;37.37
23619;BME280;18207;32.078;34.818;2023-02-28T03:44:53;101478.38;;;24.42;36.94
23619;BME280;18207;32.078;34.818;2023-02-28T03:47:31;101483.16;;;24.42;37.21
23619;BME280;18207;32.078;34.818;2023-02-28T03:50:08;101490.09;;;24.44;37.03
23619;BME280;18207;32.078;34.818;2023-02-28T03:52:48;101491.22;;;24.43;37.05
23619;BME280;18207;32.078;34.818;2023-02-28T03:55:23;101486.97;;;24.46;37.26
23619;BME280;18207;32.078;34.818;2023-02-28T03:58:02;101493.41;;;24.46;37.28
23619;BME280;18207;32.078;34.818;2023-02-28T04:00:38;101499.00;;;24.46;37.09
23619;BME280;18207;32.078;34.818;2023-02-28T04:03:10;101496.19;;;24.46;36.93
23619;BME280;18207;32.078;34.818;2023-02-28T04:05:50;101497.03;;;24.47;36.97
23619;BME280;18207;32.078;34.818;2023-02-28T04:08:22;101494.22;;;24.47;37.17
23619;BME280;18207;32.078;34.818;2023-02-28T04:11:01;101497.03;;;24.47;37.08
23619;BME280;18207;32.078;34.818;2023-02-28T04:13:34;101495.84;;;24.48;37.03
23619;BME280;18207;32.078;34.818;2023-02-28T04:16:07;101503.13;;;24.49;36.82
23619;BME280;18207;32.078;34.818;2023-02-28T04:18:59;101497.50;;;24.49;36.60
23619;BME280;18207;32.078;34.818;2023-02-28T04:21:37;101498.34;;;24.49;36.51
23619;BME280;18207;32.078;34.818;2023-02-28T04:24:11;101501.94;;;24.50;36.67
23619;BME280;18207;32.078;34.818;2023-02-28T04:26:47;101511.22;;;24.50;36.93
23619;BME280;18207;32.078;34.818;2023-02-28T04:29:27;101510.06;;;24.51;36.71
23619;BME280;18207;32.078;34.818;2023-02-28T04:32:01;101513.69;;;24.52;36.55
23619;BME280;18207;32.078;34.818;2023-02-28T04:34:32;101522.59;;;24.54;36.30
23619;BME280;18207;32.078;34.818;2023-02-28T04:37:04;101519.91;;;24.57;36.55
23619;BME280;18207;32.078;34.818;2023-02-28T04:39:41;101524.03;;;24.60;36.10
23619;BME280;18207;32.078;34.818;2023-02-28T04:42:15;101520.53;;;24.63;36.16
23619;BME280;18207;32.078;34.818;2023-02-28T04:44:46;101523.47;;;24.66;36.08
23619;BME280;18207;32.078;34.818;2023-02-28T04:47:17;101526.41;;;24.70;36.23
23619;BME280;18207;32.078;34.818;2023-02-28T04:49:47;101525.38;;;24.74;36.12
23619;BME280;18207;32.078;34.818;2023-02-28T04:52:17;101525.19;;;24.79;36.55
23619;BME280;18207;32.078;34.818;2023-02-28T04:54:48;101533.38;;;24.84;36.20
23619;BME280;18207;32.078;34.818;2023-02-28T04:57:21;101542.09;;;24.91;36.49
23619;BME280;18207;32.078;34.818;2023-02-28T04:59:51;101534.25;;;24.97;36.32
23619;BME280;18207;32.078;34.818;2023-02-28T05:02:21;101529.22;;;25.02;36.27
23619;BME280;18207;32.078;34.818;2023-02-28T05:04:55;101540.28;;;25.07;35.98
23619;BME280;18207;32.078;34.818;2023-02-28T05:07:25;101533.28;;;25.13;36.51
23619;BME280;18207;32.078;34.818;2023-02-28T05:09:56;101537.97;;;25.21;36.38
23619;BME280;18207;32.078;34.818;2023-02-28T05:12:30;101534.59;;;25.27;36.46
23619;BME280;18207;32.078;34.818;2023-02-28T05:15:01;101531.59;;;25.32;36.22
23619;BME280;18207;32.078;34.818;2023-02-28T05:17:33;101540.25;;;25.39;36.16
23619;BME280;18207;32.078;34.818;2023-02-28T05:20:03;101531.25;;;25.46;36.24
23619;BME280;18207;32.078;34.818;2023-02-28T05:22:42;101529.16;;;25.55;36.31
23619;BME280;18207;32.078;34.818;2023-02-28T05:25:18;101533.84;;;25.63;36.28
23619;BME280;18207;32.078;34.818;2023-02-28T05:27:52;101521.63;;;25.71;36.22
23619;BME280;18207;32.078;34.818;2023-02-28T05:30:23;101529.19;;;25.79;36.21
23619;BME280;18207;32.078;34.818;2023-02-28T05:32:52;101525.06;;;25.88;36.10
23619;BME280;18207;32.078;34.818;2023-02-28T05:35:23;101528.59;;;25.97;35.95
23619;BME280;18207;32.078;34.818;2023-02-28T05:37:54;101528.47;;;26.05;35.97
23619;BME280;18207;32.078;34.818;2023-02-28T05:40:24;101535.28;;;26.16;35.91
23619;BME280;18207;32.078;34.818;2023-02-28T05:42:57;101527.13;;;26.27;36.01
23619;BME280;18207;32.078;34.818;2023-02-28T05:45:28;101527.81;;;26.36;35.96
23619;BME280;18207;32.078;34.818;2023-02-28T05:47:58;101523.72;;;26.45;35.83
23619;BME280;18207;32.078;34.818;2023-02-28T05:50:28;101522.06;;;26.56;35.58
23619;BME280;18207;32.078;34.818;2023-02-28T05:52:59;101513.09;;;26.66;35.94
23619;BME280;18207;32.078;34.818;2023-02-28T05:55:30;101516.22;;;26.77;35.78
23619;BME280;18207;32.078;34.818;2023-02-28T05:58:03;101527.81;;;26.87;35.95
23619;BME280;18207;32.078;34.818;2023-02-28T06:00:33;101523.63;;;26.96;35.77
23619;BME280;18207;32.078;34.818;2023-02-28T06:03:04;101525.97;;;27.06;35.57
23619;BME280;18207;32.078;34.818;2023-02-28T06:05:35;101534.72;;;27.17;35.64
23619;BME280;18207;32.078;34.818;2023-02-28T06:08:06;101529.38;;;27.27;35.51
23619;BME280;18207;32.078;34.818;2023-02-28T06:10:37;101533.66;;;27.37;35.32
23619;BME280;18207;32.078;34.818;2023-02-28T06:13:09;101535.22;;;27.50;35.43
23619;BME280;18207;32.078;34.818;2023-02-28T06:15:40;101542.34;;;27.59;35.52
23619;BME280;18207;32.078;34.818;2023-02-28T06:18:11;101538.63;;;27.71;35.48
23619;BME280;18207;32.078;34.818;2023-02-28T06:20:42;101538.53;;;27.82;35.63
23619;BME280;18207;32.078;34.818;2023-02-28T06:23:12;101537.59;;;27.94;35.59
23619;BME280;18207;32.078;34.818;2023-02-28T06:25:46;101544.72;;;28.03;35.40
23619;BME280;18207;32.078;34.818;2023-02-28T06:28:19;101545.81;;;28.14;35.42
23619;BME280;18207;32.078;34.818;2023-02-28T06:30:50;101552.91;;;28.24;35.38
23619;BME280;18207;32.078;34.818;2023-02-28T06:33:21;101543.84;;;28.34;35.12
23619;BME280;18207;32.078;34.818;2023-02-28T06:35:53;101544.91;;;28.45;34.94
23619;BME280;18207;32.078;34.818;2023-02-28T06:38:25;101547.97;;;28.55;35.06
23619;BME280;18207;32.078;34.818;2023-02-28T06:40:58;101548.22;;;28.65;34.98
23619;BME280;18207;32.078;34.818;2023-02-28T06:43:35;101542.41;;;28.77;35.11
23619;BME280;18207;32.078;34.818;2023-02-28T06:46:09;101545.88;;;28.86;34.96
23619;BME280;18207;32.078;34.818;2023-02-28T06:48:43;101537.59;;;28.97;34.31
23619;BME280;18207;32.078;34.818;2023-02-28T06:51:15;101539.00;;;29.06;34.64
23619;BME280;18207;32.078;34.818;2023-02-28T06:53:48;101536.75;;;29.15;34.11
23619;BME280;18207;32.078;34.818;2023-02-28T06:56:21;101533.31;;;29.25;33.89
23619;BME280;18207;32.078;34.818;2023-02-28T06:58:54;101522.56;;;29.34;33.63
23619;BME280;18207;32.078;34.818;2023-02-28T07:01:25;101514.28;;;29.45;33.58
23619;BME280;18207;32.078;34.818;2023-02-28T07:03:57;101516.47;;;29.54;33.66
23619;BME280;18207;32.078;34.818;2023-02-28T07:06:28;101517.88;;;29.64;33.35
23619;BME280;18207;32.078;34.818;2023-02-28T07:08:59;101522.91;;;29.74;33.68
23619;BME280;18207;32.078;34.818;2023-02-28T07:11:33;101522.63;;;29.82;33.28
23619;BME280;18207;32.078;34.818;2023-02-28T07:14:05;101525.66;;;29.93;32.87
23619;BME280;18207;32.078;34.818;2023-02-28T07:16:36;101532.28;;;30.00;33.14
23619;BME280;18207;32.078;34.818;2023-02-28T07:19:07;101523.94;;;30.11;32.46
23619;BME280;18207;32.078;34.818;2023-02-28T07:21:38;101517.16;;;30.19;33.08
23619;BME280;18207;32.078;34.818;2023-02-28T07:24:08;101509.59;;;30.26;32.38
23619;BME280;18207;32.078;34.818;2023-02-28T07:26:39;101512.16;;;30.35;32.43
23619;BME280;18207;32.078;34.818;2023-02-28T07:29:15;101525.22;;;30.42;32.19
23619;BME280;18207;32.078;34.818;2023-02-28T07:31:46;101533.88;;;30.49;31.80
23619;BME280;18207;32.078;34.818;2023-02-28T07:34:18;101520.97;;;30.55;31.56
23619;BME280;18207;32.078;34.818;2023-02-28T07:36:49;101519.88;;;30.63;32.24
23619;BME280;18207;32.078;34.818;2023-02-28T07:39:21;101513.44;;;30.70;31.81
23619;BME280;18207;32.078;34.818;2023-02-28T07:41:51;101505.84;;;30.77;31.58
23619;BME280;18207;32.078;34.818;2023-02-28T07:44:25;101516.06;;;30.85;31.56
23619;BME280;18207;32.078;34.818;2023-02-28T07:46:54;101510.88;;;30.91;31.70
23619;BME280;18207;32.078;34.818;2023-02-28T07:49:25;101506.91;;;30.99;31.43
23619;BME280;18207;32.078;34.818;2023-02-28T07:51:55;101511.09;;;31.05;31.09
23619;BME280;18207;32.078;34.818;2023-02-28T07:54:25;101511.16;;;31.12;31.16
23619;BME280;18207;32.078;34.818;2023-02-28T07:56:56;101504.34;;;31.20;31.58
23619;BME280;18207;32.078;34.818;2023-02-28T07:59:28;101512.94;;;31.27;30.86
23619;BME280;18207;32.078;34.818;2023-02-28T08:01:59;101499.63;;;31.34;31.33
23619;BME280;18207;32.078;34.818;2023-02-28T08:04:32;101511.47;;;31.43;31.33
23619;BME280;18207;32.078;34.818;2023-02-28T08:07:03;101503.41;;;31.48;30.70
23619;BME280;18207;32.078;34.818;2023-02-28T08:09:34;101504.69;;;31.54;31.19
23619;BME280;18207;32.078;34.818;2023-02-28T08:12:05;101503.56;;;31.62;31.01
23619;BME280;18207;32.078;34.818;2023-02-28T08:14:38;101502.41;;;31.70;30.70
23619;BME280;18207;32.078;34.818;2023-02-28T08:17:10;101503.72;;;31.76;30.30
23619;BME280;18207;32.078;34.818;2023-02-28T08:19:41;101511.44;;;31.83;30.29
23619;BME280;18207;32.078;34.818;2023-02-28T08:22:13;101519.22;;;31.89;30.24
23619;BME280;18207;32.078;34.818;2023-02-28T08:24:43;101514.41;;;31.93;30.35
23619;BME280;18207;32.078;34.818;2023-02-28T08:27:14;101509.53;;;31.97;29.75
23619;BME280;18207;32.078;34.818;2023-02-28T08:29:48;101505.50;;;32.02;29.55
23619;BME280;18207;32.078;34.818;2023-02-28T08:32:18;101503.09;;;32.04;29.67
23619;BME280;18207;32.078;34.818;2023-02-28T08:34:57;101500.28;;;32.07;29.30
23619;BME280;18207;32.078;34.818;2023-02-28T08:37:28;101488.97;;;32.11;29.11
23619;BME280;18207;32.078;34.818;2023-02-28T08:40:03;101487.78;;;32.15;29.45
23619;BME280;18207;32.078;34.818;2023-02-28T08:42:34;101488.59;;;32.19;29.63
23619;BME280;18207;32.078;34.818;2023-02-28T08:45:22;101482.53;;;32.24;29.05
23619;BME280;18207;32.078;34.818;2023-02-28T08:47:54;101482.56;;;32.27;29.44
23619;BME280;18207;32.078;34.818;2023-02-28T08:50:25;101492.31;;;32.30;28.68
23619;BME280;18207;32.078;34.818;2023-02-28T08:52:55;101483.78;;;32.33;28.66
23619;BME280;18207;32.078;34.818;2023-02-28T08:55:26;101477.31;;;32.36;28.70
23619;BME280;18207;32.078;34.818;2023-02-28T08:57:57;101478.97;;;32.41;29.18
23619;BME280;18207;32.078;34.818;2023-02-28T09:00:31;101484.66;;;32.44;29.11
23619;BME280;18207;32.078;34.818;2023-02-28T09:03:02;101476.16;;;32.48;29.14
23619;BME280;18207;32.078;34.818;2023-02-28T09:05:34;101471.69;;;32.50;28.36
23619;BME280;18207;32.078;34.818;2023-02-28T09:08:05;101472.09;;;32.52;28.28
23619;BME280;18207;32.078;34.818;2023-02-28T09:10:36;101481.06;;;32.54;28.30
23619;BME280;18207;32.078;34.818;2023-02-28T09:13:07;101477.41;;;32.54;28.21
23619;BME280;18207;32.078;34.818;2023-02-28T09:15:40;101467.25;;;32.53;27.85
23619;BME280;18207;32.078;34.818;2023-02-28T09:18:11;101470.47;;;32.51;28.23
23619;BME280;18207;32.078;34.818;2023-02-28T09:20:43;101476.56;;;32.50;27.54
23619;BME280;18207;32.078;34.818;2023-02-28T09:23:13;101464.38;;;32.49;27.55
23619;BME280;18207;32.078;34.818;2023-02-28T09:25:49;101465.19;;;32.50;27.98
23619;BME280;18207;32.078;34.818;2023-02-28T09:28:20;101455.00;;;32.49;28.16
23619;BME280;18207;32.078;34.818;2023-02-28T09:30:54;101468.44;;;32.52;27.65
23619;BME280;18207;32.078;34.818;2023-02-28T09:33:26;101459.50;;;32.50;27.40
23619;BME280;18207;32.078;34.818;2023-02-28T09:36:02;101459.06;;;32.51;27.96
23619;BME280;18207;32.078;34.818;2023-02-28T09:38:32;101448.91;;;32.50;27.91
23619;BME280;18207;32.078;34.818;2023-02-28T09:41:12;101450.16;;;32.53;27.86
23619;BME280;18207;32.078;34.818;2023-02-28T09:43:47;101452.16;;;32.52;27.53
23619;BME280;18207;32.078;34.818;2023-02-28T09:46:32;101435.94;;;32.53;27.79
23619;BME280;18207;32.078;34.818;2023-02-28T09:49:10;101432.25;;;32.52;27.45
23619;BME280;18207;32.078;34.818;2023-02-28T09:51:50;101433.47;;;32.51;27.50
23619;BME280;18207;32.078;34.818;2023-02-28T09:54:26;101427.38;;;32.49;27.05
23619;BME280;18207;32.078;34.818;2023-02-28T09:57:05;101431.81;;;32.50;27.17
23619;BME280;18207;32.078;34.818;2023-02-28T10:00:02;101436.72;;;32.50;27.60
23619;BME280;18207;32.078;34.818;2023-02-28T10:03:15;101420.44;;;32.47;27.17
23619;BME280;18207;32.078;34.818;2023-02-28T10:05:58;101410.66;;;32.44;27.08
23619;BME280;18207;32.078;34.818;2023-02-28T10:08:37;101413.50;;;32.44;27.38
23619;BME280;18207;32.078;34.818;2023-02-28T10:11:16;101407.03;;;32.44;26.87
23619;BME280;18207;32.078;34.818;2023-02-28T10:13:56;101391.16;;;32.43;27.06
23619;BME280;18207;32.078;34.818;2023-02-28T10:16:35;101388.69;;;32.41;26.89
23619;BME280;18207;32.078;34.818;2023-02-28T10:19:16;101379.75;;;32.39;26.78
23619;BME280;18207;32.078;34.818;2023-02-28T10:21:57;101376.50;;;32.37;27.02
23619;BME280;18207;32.078;34.818;2023-02-28T10:24:35;101369.16;;;32.36;26.73
23619;BME280;18207;32.078;34.818;2023-02-28T10:27:15;101359.00;;;32.35;27.02
23619;BME280;18207;32.078;34.818;2023-02-28T10:29:51;101344.75;;;32.32;26.39
23619;BME280;18207;32.078;34.818;2023-02-28T10:32:29;101335.81;;;32.30;26.44
23619;BME280;18207;32.078;34.818;2023-02-28T10:35:15;101325.22;;;32.27;26.19
23619;BME280;18207;32.078;34.818;2023-02-28T10:37:48;101323.19;;;32.24;26.24
23619;BME280;18207;32.078;34.818;2023-02-28T10:40:30;101315.03;;;32.22;26.69
23619;BME280;18207;32.078;34.818;2023-02-28T10:43:05;101313.03;;;32.20;26.79
23619;BME280;18207;32.078;34.818;2023-02-28T10:45:36;101317.06;;;32.19;26.31
23619;BME280;18207;32.078;34.818;2023-02-28T10:48:30;101303.22;;;32.17;25.97
23619;BME280;18207;32.078;34.818;2023-02-28T10:51:06;101304.06;;;32.14;26.35
23619;BME280;18207;32.078;34.818;2023-02-28T10:53:49;101292.69;;;32.14;26.24
23619;BME280;18207;32.078;34.818;2023-02-28T10:56:29;101293.06;;;32.13;26.49
23619;BME280;18207;32.078;34.818;2023-02-28T10:59:08;101296.31;;;32.11;25.79
23619;BME280;18207;32.078;34.818;2023-02-28T11:01:52;101269.88;;;32.07;26.21
23619;BME280;18207;32.078;34.818;2023-02-28T11:04:35;101284.53;;;32.09;25.97
23619;BME280;18207;32.078;34.818;2023-02-28T11:07:19;101275.94;;;32.06;25.75
23619;BME280;18207;32.078;34.818;2023-02-28T11:09:56;101264.97;;;32.04;25.74
23619;BME280;18207;32.078;34.818;2023-02-28T11:12:33;101264.16;;;32.04;25.63
23619;BME280;18207;32.078;34.818;2023-02-28T11:15:24;101259.66;;;32.03;25.94
23619;BME280;18207;32.078;34.818;2023-02-28T11:17:59;101259.66;;;32.03;25.66
23619;BME280;18207;32.078;34.818;2023-02-28T11:20:33;101260.88;;;32.02;25.68
23619;BME280;18207;32.078;34.818;2023-02-28T11:23:14;101265.78;;;32.01;26.04
23619;BME280;18207;32.078;34.818;2023-02-28T11:25:52;101258.44;;;32.00;25.79
23619;BME280;18207;32.078;34.818;2023-02-28T11:28:29;101255.19;;;31.98;25.60
23619;BME280;18207;32.078;34.818;2023-02-28T11:31:08;101254.38;;;31.98;25.46
23619;BME280;18207;32.078;34.818;2023-02-28T11:33:47;101247.06;;;31.97;25.88
23619;BME280;18207;32.078;34.818;2023-02-28T11:36:21;101240.97;;;31.95;25.52
23619;BME280;18207;32.078;34.818;2023-02-28T11:39:07;101245.84;;;31.94;25.59
23619;BME280;18207;32.078;34.818;2023-02-28T11:41:59;101232.00;;;31.93;25.26
23619;BME280;18207;32.078;34.818;2023-02-28T11:47:48;101222.25;;;31.87;25.89
23619;BME280;18207;32.078;34.818;2023-02-28T11:50:41;101220.63;;;31.86;26.01
23619;BME280;18207;32.078;34.818;2023-02-28T11:53:24;101214.13;;;31.85;25.46
23619;BME280;18207;32.078;34.818;2023-02-28T11:56:06;101208.03;;;31.83;25.44
23619;BME280;18207;32.078;34.818;2023-02-28T11:58:50;101204.75;;;31.81;25.25
23619;BME280;18207;32.078;34.818;2023-02-28T12:01:41;101216.56;;;31.80;25.21
23619;BME280;18207;32.078;34.818;2023-02-28T12:04:25;101213.28;;;31.78;25.83
23619;BME280;18207;32.078;34.818;2023-02-28T12:07:05;101198.66;;;31.76;25.25
23619;BME280;18207;32.078;34.818;2023-02-28T12:09:55;101193.38;;;31.74;25.57
23619;BME280;18207;32.078;34.818;2023-02-28T12:12:44;101189.31;;;31.72;25.55
23619;BME280;18207;32.078;34.818;2023-02-28T12:19:00;101182.38;;;31.62;25.23
23619;BME280;18207;32.078;34.818;2023-02-28T12:22:02;101186.84;;;31.60;25.58
23619;BME280;18207;32.078;34.818;2023-02-28T12:28:02;101182.69;;;31.54;25.00
23619;BME280;18207;32.078;34.818;2023-02-28T12:30:39;101191.22;;;31.54;25.43
23619;BME280;18207;32.078;34.818;2023-02-28T12:33:15;101180.25;;;31.52;25.01
23619;BME280;18207;32.078;34.818;2023-02-28T12:35:53;101181.91;;;31.53;24.83
23619;BME280;18207;32.078;34.818;2023-02-28T12:38:39;101175.38;;;31.53;25.35
23619;BME280;18207;32.078;34.818;2023-02-28T12:41:16;101174.56;;;31.52;25.37
23619;BME280;18207;32.078;34.818;2023-02-28T12:44:01;101165.25;;;31.52;25.54
23619;BME280;18207;32.078;34.818;2023-02-28T12:46:38;101163.63;;;31.51;25.51
23619;BME280;18207;32.078;34.818;2023-02-28T12:49:17;101164.84;;;31.50;25.20
23619;BME280;18207;32.078;34.818;2023-02-28T12:51:49;101162.00;;;31.50;24.73
23619;BME280;18207;32.078;34.818;2023-02-28T12:54:26;101149.78;;;31.49;24.82
23619;BME280;18207;32.078;34.818;2023-02-28T12:57:09;101155.09;;;31.51;25.17
23619;BME280;18207;32.078;34.818;2023-02-28T12:59:51;101154.25;;;31.50;25.28
23619;BME280;18207;32.078;34.818;2023-02-28T13:02:59;101136.78;;;31.48;25.19
23619;BME280;18207;32.078;34.818;2023-02-28T13:06:08;101149.78;;;31.49;25.49
23619;BME280;18207;32.078;34.818;2023-02-28T13:09:11;101138.84;;;31.48;25.00
23619;BME280;18207;32.078;34.818;2023-02-28T13:11:45;101141.69;;;31.48;25.20
23619;BME280;18207;32.078;34.818;2023-02-28T13:14:28;101145.31;;;31.48;24.74
23619;BME280;18207;32.078;34.818;2023-02-28T13:17:10;101147.38;;;31.48;25.04
23619;BME280;18207;32.078;34.818;2023-02-28T13:19:45;101148.56;;;31.47;24.88
23619;BME280;18207;32.078;34.818;2023-02-28T13:22:22;101133.56;;;31.46;25.17
23619;BME280;18207;32.078;34.818;2023-02-28T13:25:53;101149.78;;;31.42;24.90
23619;BME280;18207;32.078;34.818;2023-02-28T13:29:21;101148.56;;;31.40;24.85
23619;BME280;18207;32.078;34.818;2023-02-28T13:32:43;101138.81;;;31.37;24.64
23619;BME280;18207;32.078;34.818;2023-02-28T13:35:43;101130.28;;;31.37;25.11
23619;BME280;18207;32.078;34.818;2023-02-28T13:38:39;101136.78;;;31.38;25.15
23619;BME280;18207;32.078;34.818;2023-02-28T13:41:47;101140.81;;;31.37;24.93
23619;BME280;18207;32.078;34.818;2023-02-28T13:44:20;101140.81;;;31.37;24.55
23619;BME280;18207;32.078;34.818;2023-02-28T13:47:24;101138.81;;;31.37;24.66
23619;BME280;18207;32.078;34.818;2023-02-28T13:50:24;101138.38;;;31.35;24.66
23619;BME280;18207;32.078;34.818;2023-02-28T13:53:54;101135.94;;;31.34;24.75